DH8TOM-3 Weather Reports


time (UTC)temp
C
wind
direction
speed
KPH
gust
KPH
rain 1hr
cm
rain 24hr
cm
rain mn
cm
humidity
%
barometer
mb
20191018120705 20 68 1.6 3.2 0.00 0.00 0.00 52 1006.9
20191018120205 20 68 3.2 3.2 0.00 0.00 0.00 52 1006.9
20191018115705 20 68 3.2 3.2 0.00 0.00 0.00 51 1006.9
20191018115205 20 68 3.2 3.2 0.00 0.00 0.00 51 1006.9
20191018114705 20 90 3.2 3.2 0.00 0.00 0.00 51 1007.0
20191018114205 20 90 3.2 3.2 0.00 0.00 0.00 52 1007.1
20191018113705 20 180 3.2 3.2 0.00 0.00 0.00 52 1007.2
20191018113204 20 90 0.0 1.6 0.00 0.00 0.00 52 1007.1
20191018112705 21 68 0.0 3.2 0.00 0.00 0.00 52 1007.1
20191018112208 21 158 0.0 3.2 0.00 0.00 0.00 51 1007.3
20191018111704 21 68 1.6 3.2 0.00 0.00 0.00 51 1007.3
20191018111205 21 113 3.2 3.2 0.00 0.00 0.00 50 1007.4
20191018110704 21 90 3.2 3.2 0.00 0.00 0.00 48 1007.5
20191018110204 21 90 0.0 1.6 0.00 0.00 0.00 48 1007.4
20191018105705 21 315 0.0 4.8 0.00 0.00 0.00 48 1007.6
20191018105205 21 225 1.6 4.8 0.00 0.00 0.00 48 1007.6
20191018104704 21 90 1.6 4.8 0.00 0.00 0.00 48 1007.7
20191018104205 21 248 3.2 4.8 0.00 0.00 0.00 49 1007.7
20191018103704 21 203 1.6 1.6 0.00 0.00 0.00 52 1007.9
20191018103205 21 248 0.0 1.6 0.00 0.00 0.00 53 1008.1
20191018102704 20 68 1.6 1.6 0.00 0.00 0.00 53 1008.1
20191018102206 20 113 0.0 1.6 0.00 0.00 0.00 52 1008.0
20191018101705 20 135 1.6 3.2 0.00 0.00 0.00 51 1008.1
20191018101204 20 135 1.6 3.2 0.00 0.00 0.00 50 1008.1
20191018100705 20 225 1.6 3.2 0.00 0.00 0.00 49 1008.1
20191018100204 21 68 3.2 1.6 0.00 0.00 0.00 49 1008.1
20191018095705 22 225 0.0 0.0 0.00 0.00 0.00 46 1008.3
20191018095206 22 225 0.0 0.0 0.00 0.00 0.00 44 1008.6
20191018094704 22 225 0.0 0.0 0.00 0.00 0.00 44 1008.5
20191018094205 23 68 0.0 0.0 0.00 0.00 0.00 43 1008.5
20191018093704 23 135 0.0 3.2 0.00 0.00 0.00 43 1008.6
20191018093205 23 45 0.0 3.2 0.00 0.00 0.00 41 1008.8
20191018092704 24 90 0.0 3.2 0.00 0.00 0.00 37 1008.7
20191018092205 25 113 1.6 4.8 0.00 0.00 0.00 34 1008.8
20191018091704 26 68 1.6 4.8 0.00 0.00 0.00 32 1008.7
20191018091205 29 113 1.6 4.8 0.00 0.00 0.00 30 1008.8
20191018090704 30 68 3.2 3.2 0.00 0.00 0.00 29 1008.8
20191018090205 30 68 1.6 3.2 0.00 0.00 0.00 30 1008.8
20191018085705 30 90 1.6 0.0 0.00 0.00 0.00 33 1008.9
20191018085206 29 68 0.0 0.0 0.00 0.00 0.00 36 1009.0
20191018084705 28 68 0.0 0.0 0.00 0.00 0.00 36 1009.0
20191018084205 27 68 0.0 0.0 0.00 0.00 0.00 35 1008.8
20191018083704 28 113 0.0 3.2 0.00 0.00 0.00 34 1008.9
20191018083205 28 270 0.0 3.2 0.00 0.00 0.00 37 1009.0
20191018082705 27 113 0.0 6.4 0.00 0.00 0.00 40 1008.9
20191018082205 26 158 3.2 6.4 0.00 0.00 0.00 40 1009.0
20191018081705 25 225 3.2 6.4 0.00 0.00 0.00 39 1009.1
20191018081205 26 248 3.2 4.8 0.00 0.00 0.00 38 1009.2
20191018080704 27 180 1.6 4.8 0.00 0.00 0.00 38 1009.3
20191018080204 27 225 1.6 4.8 0.00 0.00 0.00 39 1009.3
20191018075705 26 68 3.2 3.2 0.00 0.00 0.00 44 1009.5
20191018075206 25 248 1.6 3.2 0.00 0.00 0.00 48 1009.5
20191018074705 24 135 0.0 3.2 0.00 0.00 0.00 54 1009.3
20191018074204 21 248 1.6 1.6 0.00 0.00 0.00 73 1009.3
20191018073705 20 90 0.0 1.6 0.00 0.00 0.00 77 1009.4
20191018073205 16 203 0.0 1.6 0.00 0.00 0.00 84 1009.3
20191018072704 15 180 1.6 0.0 0.00 0.00 0.00 84 1009.3
20191018072205 14 203 0.0 0.0 0.00 0.00 0.00 84 1009.3
20191018071705 13 90 0.0 0.0 0.00 0.00 0.00 84 1009.3
20191018071204 13 203 0.0 0.0 0.00 0.00 0.00 84 1009.3
20191018070705 13 90 0.0 0.0 0.00 0.00 0.00 84 1009.3
20191018070205 13 180 0.0 0.0 0.00 0.00 0.00 84 1009.3
20191018065704 13 248 0.0 0.0 0.00 0.00 0.00 85 1009.3
20191018065205 13 248 0.0 0.0 0.00 0.00 0.00 85 1009.3
20191018064704 13 113 0.0 0.0 0.00 0.00 0.00 85 1009.3
20191018064206 13 248 0.0 0.0 0.00 0.00 0.00 86 1009.3
20191018063704 13 248 0.0 0.0 0.00 0.00 0.00 86 1009.3
20191018063205 13 45 0.0 0.0 0.00 0.00 0.00 86 1009.3
20191018062704 13 135 0.0 0.0 0.00 0.00 0.00 86 1009.2
20191018062206 13 203 0.0 0.0 0.00 0.00 0.00 85 1009.2
20191018061704 13 203 0.0 0.0 0.00 0.00 0.00 85 1009.2
20191018061204 13 248 0.0 0.0 0.00 0.00 0.00 85 1009.3
20191018060704 13 270 0.0 0.0 0.00 0.00 0.00 85 1009.3
20191018060204 13 225 0.0 0.0 0.00 0.00 0.00 85 1009.1
20191018055705 13 225 0.0 0.0 0.00 0.00 0.00 85 1009.2
20191018055205 13 270 0.0 0.0 0.00 0.00 0.00 85 1009.2
20191018054704 13 180 0.0 0.0 0.00 0.00 0.00 84 1009.3
20191018054205 13 90 0.0 0.0 0.00 0.00 0.00 84 1009.1
20191018053704 13 68 0.0 0.0 0.00 0.00 0.00 84 1009.0
20191018053205 13 248 0.0 0.0 0.00 0.00 0.00 83 1009.1
20191018052704 13 203 0.0 0.0 0.00 0.00 0.00 83 1009.0
20191018052205 13 68 0.0 0.0 0.00 0.00 0.00 83 1009.0
20191018051705 13 113 0.0 0.0 0.00 0.00 0.00 83 1009.0
20191018051205 13 248 0.0 0.0 0.00 0.00 0.00 83 1009.0
20191018050705 13 158 0.0 0.0 0.00 0.00 0.00 83 1008.9
20191018050205 13 68 0.0 3.2 0.00 0.00 0.00 83 1009.0
20191018045705 13 68 0.0 3.2 0.00 0.00 0.00 83 1009.0
20191018045205 13 90 0.0 3.2 0.00 0.00 0.00 83 1008.9
20191018044705 13 248 1.6 1.6 0.00 0.00 0.00 83 1008.9
20191018044205 13 113 0.0 0.0 0.00 0.00 0.00 83 1009.1
20191018043705 13 203 0.0 0.0 0.00 0.00 0.00 83 1008.9
20191018043204 13 203 0.0 0.0 0.00 0.00 0.00 83 1009.1
20191018042705 13 135 0.0 0.0 0.00 0.00 0.00 83 1009.2
20191018042206 13 113 0.0 0.0 0.00 0.00 0.00 84 1009.3
20191018041706 13 113 0.0 0.0 0.00 0.00 0.00 84 1009.3
20191018041204 13 113 0.0 0.0 0.00 0.00 0.00 83 1009.4
20191018040705 13 248 0.0 0.0 0.00 0.00 0.00 83 1009.5
20191018040205 13 113 0.0 1.6 0.00 0.00 0.00 84 1009.4
20191018035704 13 113 0.0 1.6 0.00 0.00 0.00 83 1009.4
20191018035206 13 203 0.0 0.0 0.00 0.00 0.00 83 1009.4
20191018034705 13 113 0.0 0.0 0.00 0.00 0.00 83 1009.5
20191018034205 13 158 0.0 0.0 0.00 0.00 0.00 83 1009.5
20191018033704 13 158 0.0 0.0 0.00 0.00 0.00 83 1009.5
20191018033204 13 203 0.0 0.0 0.00 0.00 0.00 83 1009.4
20191018032705 13 248 0.0 0.0 0.00 0.00 0.00 83 1009.3
20191018032204 13 180 0.0 0.0 0.00 0.00 0.00 83 1009.2
20191018031705 13 248 0.0 0.0 0.00 0.00 0.00 83 1009.4
20191018031205 13 203 0.0 0.0 0.00 0.00 0.00 83 1009.3
20191018030705 13 225 0.0 0.0 0.00 0.00 0.00 83 1009.3
20191018030205 13 68 0.0 0.0 0.00 0.00 0.00 83 1009.3
20191018025705 13 45 0.0 0.0 0.00 0.00 0.00 83 1009.4
20191018025206 13 68 0.0 0.0 0.00 0.00 0.00 83 1009.4
20191018024705 13 270 0.0 0.0 0.00 0.00 0.00 83 1009.4
20191018024205 13 203 0.0 0.0 0.00 0.00 0.00 83 1009.5
20191018023705 13 225 0.0 0.0 0.00 0.00 0.00 83 1009.5
20191018023205 13 270 0.0 0.0 0.00 0.00 0.00 83 1009.4
20191018022704 13 113 0.0 0.0 0.00 0.00 0.00 83 1009.4
20191018022205 13 158 0.0 0.0 0.00 0.00 0.00 83 1009.5
20191018021705 13 270 0.0 0.0 0.00 0.00 0.00 83 1009.5
20191018021205 13 270 0.0 0.0 0.00 0.00 0.00 83 1009.5
20191018020704 13 270 0.0 0.0 0.00 0.00 0.00 83 1009.5
20191018020205 13 248 0.0 0.0 0.00 0.00 0.00 82 1009.5
20191018015705 13 135 0.0 0.0 0.00 0.00 0.00 83 1009.5
20191018015205 13 248 0.0 0.0 0.00 0.00 0.00 83 1009.5
20191018014704 13 248 0.0 0.0 0.00 0.00 0.00 83 1009.6
20191018014205 13 270 0.0 0.0 0.00 0.00 0.00 82 1009.6
20191018013705 13 248 0.0 0.0 0.00 0.00 0.00 82 1009.7
20191018013205 13 248 0.0 0.0 0.00 0.00 0.00 82 1009.8
20191018012705 13 248 0.0 0.0 0.00 0.00 0.00 82 1009.8
20191018012205 13 248 0.0 3.2 0.00 0.00 0.00 82 1009.8
20191018011704 13 225 0.0 3.2 0.00 0.00 0.00 82 1009.8
20191018011205 13 248 0.0 3.2 0.00 0.00 0.00 82 1009.8
20191018010704 13 315 1.6 3.2 0.00 0.00 0.00 82 1009.7
20191018010205 13 248 3.2 3.2 0.00 0.00 0.00 82 1009.7
20191018005704 13 248 0.0 0.0 0.00 0.00 0.00 82 1009.7
20191018005205 13 225 0.0 0.0 0.00 0.00 0.00 82 1009.7
20191018004704 13 203 0.0 0.0 0.00 0.00 0.00 81 1009.8
20191018004204 13 225 0.0 0.0 0.00 0.00 0.00 81 1009.8
20191018003705 13 270 0.0 0.0 0.00 0.00 0.00 81 1009.9
20191018003205 13 248 0.0 0.0 0.00 0.00 0.00 81 1009.9
20191018002704 13 248 0.0 0.0 0.00 0.00 0.00 81 1009.9
20191018002205 13 270 0.0 0.0 0.00 0.00 0.00 81 1009.9
20191018001704 13 90 0.0 0.0 0.00 0.00 0.00 81 1009.9
20191018001205 13 90 0.0 0.0 0.00 0.00 0.00 81 1010.0
20191018000705 13 270 0.0 0.0 0.00 0.00 0.00 81 1010.0
20191018000204 13 270 0.0 0.0 0.00 0.00 0.00 81 1010.0
20191017235704 13 0 0.0 0.0 0.00 0.00 0.00 81 1010.0
20191017235205 13 270 0.0 0.0 0.00 0.00 0.00 81 1010.0
20191017234704 13 270 0.0 0.0 0.00 0.00 0.00 80 1010.1
20191017234204 13 270 0.0 0.0 0.00 0.00 0.00 80 1010.1
20191017233705 13 270 0.0 0.0 0.00 0.00 0.00 80 1010.2
20191017233204 13 338 0.0 0.0 0.00 0.00 0.00 80 1010.2
20191017232705 13 293 0.0 0.0 0.00 0.00 0.00 79 1010.3
20191017232204 13 180 0.0 0.0 0.00 0.00 0.00 79 1010.4
20191017231705 13 270 0.0 0.0 0.00 0.00 0.00 79 1010.3
20191017231205 13 113 0.0 0.0 0.00 0.00 0.00 78 1010.4
20191017230705 13 68 0.0 0.0 0.00 0.00 0.00 77 1010.4
20191017230205 13 270 0.0 0.0 0.00 0.00 0.00 77 1010.6
20191017225705 13 68 0.0 0.0 0.00 0.00 0.00 77 1010.5
20191017225205 13 293 0.0 0.0 0.00 0.00 0.00 77 1010.6
20191017224705 13 293 0.0 0.0 0.00 0.00 0.00 76 1010.5
20191017224205 13 45 0.0 0.0 0.00 0.00 0.00 76 1010.5
20191017223705 13 45 0.0 0.0 0.00 0.00 0.00 76 1010.4
20191017223205 13 45 0.0 0.0 0.00 0.00 0.00 76 1010.4
20191017222705 13 270 0.0 0.0 0.00 0.00 0.00 75 1010.5
20191017222205 13 68 0.0 0.0 0.00 0.00 0.00 75 1010.3
20191017221705 13 270 0.0 0.0 0.00 0.00 0.00 75 1010.5
20191017221204 13 270 0.0 0.0 0.00 0.00 0.00 75 1010.5
20191017220705 13 315 0.0 3.2 0.00 0.00 0.00 75 1010.7
20191017220205 13 113 0.0 3.2 0.00 0.00 0.00 74 1010.8
20191017215705 13 90 0.0 3.2 0.00 0.00 0.00 74 1010.7
20191017215205 13 113 1.6 1.6 0.00 0.00 0.00 74 1010.6
20191017214705 13 90 0.0 0.0 0.00 0.00 0.00 74 1010.6
20191017214205 13 293 0.0 4.8 0.00 0.00 0.00 74 1010.6
20191017213705 13 68 0.0 4.8 0.00 0.00 0.00 74 1010.5
20191017213204 13 68 0.0 4.8 0.00 0.00 0.00 74 1010.5
20191017212704 13 68 1.6 0.0 0.00 0.00 0.00 74 1010.6
20191017212205 13 23 0.0 0.0 0.00 0.00 0.00 74 1010.6
20191017211705 13 45 0.0 0.0 0.00 0.00 0.00 74 1010.6
20191017211205 13 248 0.0 0.0 0.00 0.00 0.00 74 1010.6
20191017210704 13 180 0.0 0.0 0.00 0.00 0.00 74 1010.7
20191017210204 13 248 0.0 0.0 0.00 0.00 0.00 74 1010.8
20191017205705 13 293 0.0 0.0 0.00 0.00 0.00 75 1010.8
20191017205205 13 45 0.0 0.0 0.00 0.00 0.00 75 1010.8
20191017204704 13 293 0.0 0.0 0.00 0.00 0.00 75 1010.8
20191017204205 13 68 0.0 0.0 0.00 0.00 0.00 75 1010.9
20191017203704 13 68 0.0 0.0 0.00 0.00 0.00 75 1010.9
20191017203205 13 203 0.0 0.0 0.00 0.00 0.00 75 1011.0
20191017202705 13 203 0.0 0.0 0.00 0.00 0.00 74 1011.0
20191017202206 13 113 0.0 0.0 0.00 0.00 0.00 74 1011.0
20191017201705 13 248 0.0 0.0 0.00 0.00 0.00 74 1010.9
20191017201205 13 248 0.0 0.0 0.00 0.00 0.00 73 1010.9
20191017200705 13 248 0.0 0.0 0.00 0.00 0.00 73 1010.9
20191017200205 13 248 0.0 0.0 0.00 0.00 0.00 73 1010.9
20191017195705 13 248 0.0 0.0 0.00 0.00 0.00 74 1010.9
20191017195205 13 270 0.0 0.0 0.00 0.00 0.00 74 1010.9
20191017194705 13 270 0.0 0.0 0.00 0.00 0.00 73 1010.8
20191017194205 13 90 0.0 0.0 0.00 0.00 0.00 73 1010.9
20191017193704 13 68 0.0 0.0 0.00 0.00 0.00 73 1010.9
20191017193205 13 68 0.0 0.0 0.00 0.00 0.00 73 1010.9
20191017192705 13 248 0.0 0.0 0.00 0.00 0.00 73 1010.9
20191017192205 13 248 0.0 0.0 0.00 0.00 0.00 72 1010.9
20191017191705 13 248 0.0 0.0 0.00 0.00 0.00 72 1011.0
20191017191205 13 180 0.0 0.0 0.00 0.00 0.00 72 1011.1
20191017190204 14 135 0.0 0.0 0.00 0.00 0.00 70 1011.0
20191017185704 14 135 0.0 0.0 0.00 0.00 0.00 70 1010.9
20191017185205 14 135 0.0 0.0 0.00 0.00 0.00 70 1010.9
20191017184705 14 135 0.0 0.0 0.00 0.00 0.00 70 1011.0
20191017184205 14 135 0.0 0.0 0.00 0.00 0.00 68 1011.1
20191017183705 14 203 0.0 0.0 0.00 0.00 0.00 68 1011.1
20191017183204 15 270 0.0 0.0 0.00 0.00 0.00 67 1011.3
20191017182704 15 270 0.0 0.0 0.00 0.00 0.00 67 1011.4
20191017182204 15 270 0.0 0.0 0.00 0.00 0.00 67 1011.3
20191017181705 15 270 0.0 0.0 0.00 0.00 0.00 67 1011.3
20191017181205 15 270 0.0 0.0 0.00 0.00 0.00 66 1011.2
20191017180705 15 270 0.0 0.0 0.00 0.00 0.00 66 1011.2
20191017180204 15 135 0.0 0.0 0.00 0.00 0.00 66 1011.2
20191017175705 15 90 0.0 0.0 0.00 0.00 0.00 65 1011.3
20191017175205 15 203 0.0 0.0 0.00 0.00 0.00 65 1011.2
20191017174705 15 113 0.0 0.0 0.00 0.00 0.00 64 1011.3
20191017174204 15 68 0.0 0.0 0.00 0.00 0.00 64 1011.3
20191017173705 15 158 0.0 0.0 0.00 0.00 0.00 64 1011.4
20191017173205 15 158 0.0 0.0 0.00 0.00 0.00 64 1011.3
20191017172704 15 113 0.0 0.0 0.00 0.00 0.00 63 1011.2
20191017172204 15 68 0.0 0.0 0.00 0.00 0.00 63 1011.3
20191017171704 15 248 0.0 0.0 0.00 0.00 0.00 63 1011.3
20191017171205 16 90 0.0 0.0 0.00 0.00 0.00 62 1011.3
20191017170705 16 90 0.0 0.0 0.00 0.00 0.00 62 1011.1
20191017170205 16 225 0.0 0.0 0.00 0.00 0.00 61 1011.1
20191017165704 16 158 0.0 0.0 0.00 0.00 0.00 61 1011.2
20191017165205 16 248 0.0 0.0 0.00 0.00 0.00 60 1011.2
20191017164704 16 225 0.0 0.0 0.00 0.00 0.00 59 1011.2
20191017164205 16 248 0.0 0.0 0.00 0.00 0.00 58 1011.2
20191017163704 16 248 0.0 0.0 0.00 0.00 0.00 58 1011.2
20191017163205 17 248 0.0 0.0 0.00 0.00 0.00 58 1011.1
20191017162704 17 180 0.0 0.0 0.00 0.00 0.00 57 1011.1
20191017162205 17 180 0.0 0.0 0.00 0.00 0.00 57 1011.0
20191017161704 17 68 0.0 0.0 0.00 0.00 0.00 57 1010.9
20191017161204 17 68 0.0 0.0 0.00 0.00 0.00 56 1011.1
20191017160705 17 68 0.0 0.0 0.00 0.00 0.00 56 1011.3
20191017160205 17 68 0.0 0.0 0.00 0.00 0.00 56 1011.3
20191017155705 17 68 0.0 0.0 0.00 0.00 0.00 56 1011.3
20191017155205 17 68 0.0 0.0 0.00 0.00 0.00 55 1011.2
20191017154705 17 68 0.0 0.0 0.00 0.00 0.00 55 1011.2
20191017154205 18 68 0.0 0.0 0.00 0.00 0.00 55 1011.2
20191017153704 18 68 0.0 0.0 0.00 0.00 0.00 56 1011.2
20191017153205 18 68 0.0 0.0 0.00 0.00 0.00 56 1011.1
20191017152705 18 68 0.0 0.0 0.00 0.00 0.00 56 1011.2
20191017152205 17 68 0.0 0.0 0.00 0.00 0.00 56 1011.2
20191017151705 17 68 0.0 0.0 0.00 0.00 0.00 55 1011.1
20191017151205 17 68 0.0 1.6 0.00 0.00 0.00 55 1011.2
20191017150705 17 68 0.0 1.6 0.00 0.00 0.00 55 1011.2
20191017150205 17 90 0.0 3.2 0.00 0.00 0.00 55 1011.2
20191017145704 18 68 1.6 3.2 0.00 0.00 0.00 55 1011.1
20191017145205 18 68 0.0 3.2 0.00 0.00 0.00 55 1011.2
20191017144705 18 45 0.0 1.6 0.00 0.00 0.00 54 1011.1
20191017144205 18 68 0.0 0.0 0.00 0.00 0.00 54 1011.1
20191017143705 18 68 0.0 0.0 0.00 0.00 0.00 53 1011.1
20191017143204 18 68 0.0 0.0 0.00 0.00 0.00 53 1011.1
20191017142704 18 68 0.0 0.0 0.00 0.00 0.00 53 1011.1
20191017142206 18 68 0.0 1.6 0.00 0.00 0.00 53 1011.2
20191017141704 18 248 0.0 3.2 0.00 0.00 0.00 53 1011.2
20191017141204 18 90 0.0 3.2 0.00 0.00 0.00 53 1011.1
20191017140704 18 180 1.6 3.2 0.00 0.00 0.00 53 1011.1
20191017140205 18 90 0.0 3.2 0.00 0.00 0.00 53 1011.1
20191017135704 18 68 0.0 3.2 0.00 0.00 0.00 53 1011.0
20191017135204 18 203 0.0 0.0 0.00 0.00 0.00 53 1011.0
20191017134705 18 113 0.0 3.2 0.00 0.00 0.00 53 1011.1
20191017134204 18 225 0.0 3.2 0.00 0.00 0.00 54 1011.1
20191017133705 18 68 1.6 6.4 0.00 0.00 0.00 54 1011.1
20191017133204 18 225 3.2 6.4 0.00 0.00 0.00 54 1011.0
20191017132704 18 225 1.6 6.4 0.00 0.00 0.00 54 1011.0
20191017132204 18 248 3.2 4.8 0.00 0.00 0.00 54 1011.1
20191017131705 18 68 1.6 4.8 0.00 0.00 0.00 54 1011.2
20191017131205 18 68 1.6 4.8 0.00 0.00 0.00 55 1011.1
20191017130705 18 113 0.0 3.2 0.00 0.00 0.00 54 1011.1
20191017130205 18 135 1.6 3.2 0.00 0.00 0.00 54 1011.0
20191017125705 18 68 0.0 3.2 0.00 0.00 0.00 54 1011.1
20191017125205 18 68 1.6 3.2 0.00 0.00 0.00 54 1011.2
20191017124705 18 68 0.0 3.2 0.00 0.00 0.00 54 1011.2
20191017124205 18 68 0.0 3.2 0.00 0.00 0.00 53 1011.2
20191017123704 18 68 1.6 3.2 0.00 0.00 0.00 53 1011.4
20191017123205 18 90 1.6 3.2 0.00 0.00 0.00 52 1011.4
20191017122704 18 225 1.6 4.8 0.00 0.00 0.00 52 1011.3
20191017122205 18 90 1.6 4.8 0.00 0.00 0.00 51 1011.3
20191017121704 18 248 1.6 4.8 0.00 0.00 0.00 50 1011.3
20191017121204 18 248 1.6 4.8 0.00 0.00 0.00 50 1011.2